createdAt,value
2022-09-21T00:01:44.737Z,99.90
2022-09-21T00:05:26.852Z,99.90
2022-09-21T00:09:09.519Z,99.90
2022-09-21T00:12:51.415Z,99.90
2022-09-21T00:16:33.890Z,99.90
2022-09-21T00:20:15.951Z,99.90
2022-09-21T00:23:59.437Z,99.90
2022-09-21T00:27:41.609Z,99.90
2022-09-21T00:31:23.848Z,99.90
2022-09-21T00:35:09.683Z,99.90
2022-09-21T00:39:02.205Z,99.90
2022-09-21T00:42:44.089Z,99.90
2022-09-21T00:46:30.042Z,99.90
2022-09-21T00:50:20.371Z,99.90
2022-09-21T00:54:07.661Z,99.90
2022-09-21T00:57:55.612Z,99.90
2022-09-21T01:01:38.452Z,99.90
2022-09-21T01:05:20.372Z,99.90
2022-09-21T01:09:02.296Z,99.90
2022-09-21T01:13:13.411Z,99.90
2022-09-21T01:17:05.350Z,99.90
2022-09-21T01:21:11.721Z,99.90
2022-09-21T01:25:10.275Z,99.90
2022-09-21T01:29:20.231Z,99.90
2022-09-21T01:33:15.987Z,99.90
2022-09-21T01:37:02.643Z,99.90
2022-09-21T01:40:51.280Z,99.90
2022-09-21T01:44:35.949Z,99.90
2022-09-21T01:48:20.296Z,99.90
2022-09-21T01:52:16.905Z,99.90
2022-09-21T01:56:04.809Z,99.90
2022-09-21T01:59:56.408Z,99.90
2022-09-21T02:03:50.873Z,99.90
2022-09-21T02:07:34.686Z,99.90
2022-09-21T02:11:16.559Z,99.90
2022-09-21T02:14:59.414Z,99.90
2022-09-21T02:19:14.537Z,99.90
2022-09-21T02:23:29.260Z,99.90
2022-09-21T02:27:16.836Z,99.90
2022-09-21T02:31:14.017Z,99.90
2022-09-21T02:35:26.890Z,99.90
2022-09-21T02:39:17.425Z,99.90
2022-09-21T02:43:23.176Z,99.90
2022-09-21T02:47:18.625Z,99.90
2022-09-21T02:51:14.140Z,99.90
2022-09-21T02:54:57.368Z,99.90
2022-09-21T02:58:43.793Z,99.90
2022-09-21T03:02:42.921Z,99.90
2022-09-21T03:06:25.032Z,99.90
2022-09-21T03:10:09.325Z,99.90
2022-09-21T03:13:51.478Z,99.90
2022-09-21T03:17:33.525Z,99.90
2022-09-21T03:21:15.386Z,99.90
2022-09-21T03:24:57.648Z,99.90
2022-09-21T03:28:39.553Z,99.90
2022-09-21T03:32:21.455Z,99.90
2022-09-21T03:36:03.381Z,99.90
2022-09-21T03:39:47.312Z,99.90
2022-09-21T03:43:29.461Z,99.90
2022-09-21T03:47:11.301Z,99.90
2022-09-21T03:50:53.143Z,99.90
2022-09-21T03:54:35.053Z,99.90
2022-09-21T03:58:16.968Z,99.90
2022-09-21T04:01:58.861Z,99.90
2022-09-21T04:05:40.737Z,99.90
2022-09-21T04:09:22.619Z,99.90
2022-09-21T04:13:04.884Z,99.90
2022-09-21T04:16:47.101Z,99.90
2022-09-21T04:20:28.976Z,99.90
2022-09-21T04:24:10.888Z,99.90
2022-09-21T04:27:53.067Z,99.90
2022-09-21T04:31:35.381Z,99.90
2022-09-21T04:35:17.324Z,99.90
2022-09-21T04:39:02.239Z,99.90
2022-09-21T04:42:44.115Z,99.90
2022-09-21T04:46:26.072Z,99.90
2022-09-21T04:50:08.410Z,99.90
2022-09-21T04:53:50.265Z,99.90
2022-09-21T04:57:32.224Z,99.90
2022-09-21T05:01:14.195Z,99.90
2022-09-21T05:04:56.165Z,99.90
2022-09-21T05:08:56.352Z,99.90
2022-09-21T05:12:40.975Z,99.90
2022-09-21T05:16:23.070Z,99.90
2022-09-21T05:20:05.395Z,99.90
2022-09-21T05:23:47.258Z,99.90
2022-09-21T05:27:29.126Z,99.90
2022-09-21T05:31:29.147Z,99.90
2022-09-21T05:35:23.018Z,99.90
2022-09-21T05:39:05.235Z,99.90
2022-09-21T05:42:47.335Z,99.90
2022-09-21T05:46:41.488Z,99.90
2022-09-21T05:50:41.603Z,99.90
2022-09-21T05:54:31.452Z,99.90
2022-09-21T05:58:45.306Z,99.90
2022-09-21T06:02:41.869Z,99.90
2022-09-21T06:06:23.760Z,99.90
2022-09-21T06:10:06.170Z,99.90
2022-09-21T06:13:48.081Z,99.90
2022-09-21T06:17:29.944Z,99.90
2022-09-21T06:21:11.927Z,99.90
2022-09-21T06:24:53.799Z,99.90
2022-09-21T06:28:35.666Z,99.90
2022-09-21T06:32:18.320Z,99.90
2022-09-21T06:36:02.324Z,99.90
2022-09-21T06:39:44.206Z,99.90
2022-09-21T06:43:26.101Z,99.90
2022-09-21T06:47:08.005Z,99.90
2022-09-21T06:50:50.571Z,99.90
2022-09-21T06:54:32.421Z,99.90
2022-09-21T06:58:14.325Z,99.90
2022-09-21T07:01:58.446Z,99.90
2022-09-21T07:05:40.507Z,99.90
2022-09-21T07:13:24.381Z,99.90
2022-09-21T07:17:06.305Z,99.90
2022-09-21T07:20:51.370Z,99.90
2022-09-21T07:24:33.456Z,99.90
2022-09-21T07:28:15.605Z,99.90
2022-09-21T07:31:57.547Z,99.90
2022-09-21T07:35:39.489Z,99.90
2022-09-21T07:39:21.342Z,99.90
2022-09-21T07:43:03.382Z,99.90
2022-09-21T07:46:48.272Z,99.90
2022-09-21T07:50:30.239Z,99.90
2022-09-21T07:54:12.741Z,99.90
2022-09-21T07:58:13.363Z,99.90
2022-09-21T08:01:55.382Z,99.90
2022-09-21T08:05:37.334Z,99.90
2022-09-21T08:09:19.228Z,99.90
2022-09-21T08:13:01.597Z,99.90
2022-09-21T08:16:43.509Z,99.90
2022-09-21T08:20:25.439Z,99.90
2022-09-21T08:24:07.511Z,99.90
2022-09-21T08:27:49.722Z,99.90
2022-09-21T08:31:31.650Z,99.70
2022-09-21T08:35:13.661Z,97.70
2022-09-21T08:38:56.869Z,96.90
2022-09-21T08:42:40.270Z,96.50
2022-09-21T08:46:26.097Z,96.40
2022-09-21T08:50:33.938Z,96.50
2022-09-21T08:54:23.430Z,96.90
2022-09-21T08:58:20.257Z,96.30
2022-09-21T09:02:10.390Z,95.60
2022-09-21T09:06:22.368Z,94.60
2022-09-21T09:10:12.374Z,95.80
2022-09-21T09:14:32.194Z,95.30
2022-09-21T09:18:33.992Z,95.90
2022-09-21T09:22:23.712Z,95.60
2022-09-21T09:26:12.448Z,95.30
2022-09-21T09:30:15.851Z,94.50
2022-09-21T09:34:15.622Z,95.00
2022-09-21T09:38:21.748Z,94.50
2022-09-21T09:43:04.708Z,93.60
2022-09-21T09:47:13.964Z,92.40
2022-09-21T09:50:56.112Z,86.90
2022-09-21T09:54:38.085Z,80.00
2022-09-21T09:58:40.882Z,79.30
2022-09-21T10:02:25.204Z,81.80
2022-09-21T10:06:30.545Z,79.20
2022-09-21T10:10:37.266Z,78.20
2022-09-21T10:14:22.450Z,81.00
2022-09-21T10:18:12.069Z,77.60
2022-09-21T10:22:02.222Z,75.60
2022-09-21T10:25:44.109Z,74.90
2022-09-21T10:29:27.109Z,72.00
2022-09-21T10:33:20.349Z,71.20
2022-09-21T10:37:23.193Z,74.20
2022-09-21T10:41:05.422Z,68.70
2022-09-21T10:45:05.302Z,68.50
2022-09-21T10:48:47.688Z,65.60
2022-09-21T10:52:36.470Z,64.60
2022-09-21T10:56:21.321Z,67.00
2022-09-21T11:00:25.701Z,61.90
2022-09-21T11:04:12.789Z,63.30
2022-09-21T11:08:27.548Z,58.10
2022-09-21T11:12:18.088Z,56.60
2022-09-21T11:16:15.481Z,56.10
2022-09-21T11:20:21.633Z,53.10
2022-09-21T11:24:12.217Z,53.40
2022-09-21T11:28:22.255Z,48.50
2022-09-21T11:32:22.762Z,52.40
2022-09-21T11:36:10.539Z,51.10
2022-09-21T11:39:55.398Z,45.20
2022-09-21T11:43:43.412Z,46.20
2022-09-21T11:47:55.560Z,45.70
2022-09-21T11:51:49.442Z,49.20
2022-09-21T11:55:52.493Z,47.90
2022-09-21T12:00:00.006Z,51.80
2022-09-21T12:04:16.281Z,49.40
2022-09-21T12:08:30.770Z,51.70
2022-09-21T12:12:15.629Z,51.60
2022-09-21T12:16:12.014Z,46.60
2022-09-21T12:20:15.540Z,47.10
2022-09-21T12:24:20.735Z,46.50
2022-09-21T12:28:31.608Z,45.50
2022-09-21T12:32:47.477Z,47.10
2022-09-21T12:36:40.996Z,46.50
2022-09-21T12:40:38.138Z,45.50
2022-09-21T12:44:52.394Z,48.30
2022-09-21T12:48:39.660Z,49.50
2022-09-21T12:52:25.610Z,47.80
2022-09-21T12:56:33.513Z,47.80
2022-09-21T13:00:22.205Z,47.90
2022-09-21T13:04:44.774Z,46.10
2022-09-21T13:08:36.673Z,48.60
2022-09-21T13:12:30.578Z,47.30
2022-09-21T13:16:42.499Z,46.50
2022-09-21T13:20:24.716Z,48.70
2022-09-21T13:24:26.068Z,45.30
2022-09-21T13:28:16.823Z,45.50
2022-09-21T13:31:58.933Z,46.20
2022-09-21T13:35:52.844Z,46.20
2022-09-21T13:39:34.725Z,47.30
2022-09-21T13:43:19.491Z,46.10
2022-09-21T13:47:02.218Z,45.20
2022-09-21T13:50:45.551Z,45.00
2022-09-21T13:54:50.679Z,45.40
2022-09-21T13:58:36.690Z,46.70
2022-09-21T14:02:35.166Z,44.30
2022-09-21T14:06:28.043Z,45.40
2022-09-21T14:10:10.587Z,46.10
2022-09-21T14:14:12.163Z,46.80
2022-09-21T14:18:16.921Z,48.60
2022-09-21T14:22:04.938Z,48.70
2022-09-21T14:25:53.129Z,47.00
2022-09-21T14:29:47.166Z,46.80
2022-09-21T14:33:48.538Z,48.10
2022-09-21T14:37:43.248Z,48.90
2022-09-21T14:41:27.173Z,49.40
2022-09-21T14:45:18.241Z,49.80
2022-09-21T14:49:15.114Z,51.10
2022-09-21T14:53:28.293Z,52.70
2022-09-21T14:57:24.277Z,53.50
2022-09-21T15:01:27.176Z,54.70
2022-09-21T15:05:11.961Z,54.00
2022-09-21T15:09:21.902Z,56.20
2022-09-21T15:13:36.586Z,55.70
2022-09-21T15:17:25.151Z,55.40
2022-09-21T15:21:26.401Z,55.20
2022-09-21T15:25:13.425Z,55.00
2022-09-21T15:29:11.287Z,54.50
2022-09-21T15:32:56.684Z,55.20
2022-09-21T15:36:40.837Z,55.10
2022-09-21T15:40:26.148Z,55.60
2022-09-21T15:44:36.875Z,56.10
2022-09-21T15:48:20.701Z,56.10
2022-09-21T15:52:16.284Z,54.70
2022-09-21T15:56:01.057Z,55.40
2022-09-21T15:59:47.400Z,55.70
2022-09-21T16:03:29.301Z,56.40
2022-09-21T16:07:34.981Z,57.10
2022-09-21T16:11:25.143Z,57.60
2022-09-21T16:15:19.693Z,58.30
2022-09-21T16:19:01.598Z,58.30
2022-09-21T16:22:47.492Z,58.90
2022-09-21T16:26:36.429Z,59.60
2022-09-21T16:30:44.848Z,59.40
2022-09-21T16:34:35.310Z,59.40
2022-09-21T16:38:17.519Z,59.70
2022-09-21T16:42:04.180Z,60.10
2022-09-21T16:45:47.267Z,60.60
2022-09-21T16:49:32.726Z,61.30
2022-09-21T16:53:14.582Z,61.20
2022-09-21T16:56:59.657Z,60.90
2022-09-21T17:00:42.627Z,61.30
2022-09-21T17:04:27.483Z,61.60
2022-09-21T17:08:11.072Z,62.50
2022-09-21T17:11:54.396Z,64.00
2022-09-21T17:15:39.167Z,64.40
2022-09-21T17:19:21.776Z,64.70
2022-09-21T17:23:04.260Z,65.80
2022-09-21T17:26:46.273Z,65.10
2022-09-21T17:30:28.403Z,65.60
2022-09-21T17:34:12.417Z,66.10
2022-09-21T17:37:54.258Z,64.20
2022-09-21T17:42:02.496Z,64.80
2022-09-21T17:46:03.635Z,64.30
2022-09-21T17:49:47.049Z,65.00
2022-09-21T17:53:37.269Z,65.30
2022-09-21T17:57:30.641Z,65.90
2022-09-21T18:01:32.236Z,66.40
2022-09-21T18:05:30.372Z,66.70
2022-09-21T18:09:13.653Z,67.10
2022-09-21T18:13:11.687Z,68.70
2022-09-21T18:17:36.262Z,68.90
2022-09-21T18:21:25.062Z,68.70
2022-09-21T18:25:17.026Z,70.10
2022-09-21T18:28:59.628Z,70.70
2022-09-21T18:32:49.311Z,71.20
2022-09-21T18:37:02.370Z,71.40
2022-09-21T18:41:21.503Z,71.10
2022-09-21T18:45:14.237Z,71.10
2022-09-21T18:49:05.580Z,72.60
2022-09-21T18:52:54.075Z,73.30
2022-09-21T18:56:37.915Z,73.90
2022-09-21T19:00:20.837Z,74.60
2022-09-21T19:04:03.208Z,75.10
2022-09-21T19:08:01.717Z,75.80
2022-09-21T19:12:03.638Z,75.90
2022-09-21T19:16:16.120Z,76.70
2022-09-21T19:20:12.342Z,75.80
2022-09-21T19:24:03.352Z,77.20
2022-09-21T19:28:23.919Z,78.00
2022-09-21T19:32:34.459Z,77.40
2022-09-21T19:36:16.504Z,79.20
2022-09-21T19:39:58.473Z,79.80
2022-09-21T19:43:59.060Z,80.60
2022-09-21T19:47:53.132Z,80.60
2022-09-21T19:51:39.345Z,82.40
2022-09-21T19:55:40.491Z,83.50
2022-09-21T19:59:41.065Z,83.80
2022-09-21T20:03:34.024Z,84.80
2022-09-21T20:07:42.650Z,85.90
2022-09-21T20:11:50.705Z,85.00
2022-09-21T20:15:48.221Z,85.90
2022-09-21T20:19:56.517Z,87.80
2022-09-21T20:23:38.622Z,89.60
2022-09-21T20:27:44.522Z,90.20
2022-09-21T20:31:26.937Z,90.20
2022-09-21T20:35:21.418Z,91.20
2022-09-21T20:39:04.213Z,91.50
2022-09-21T20:42:46.302Z,92.20
2022-09-21T20:46:28.208Z,92.60
2022-09-21T20:50:12.823Z,93.20
2022-09-21T20:53:54.694Z,93.80
2022-09-21T20:57:37.244Z,94.10
2022-09-21T21:01:19.331Z,94.40
2022-09-21T21:05:01.296Z,95.00
2022-09-21T21:08:43.279Z,95.30
2022-09-21T21:12:26.018Z,95.70
2022-09-21T21:16:11.841Z,96.10
2022-09-21T21:19:54.522Z,96.40
2022-09-21T21:23:57.086Z,96.80
2022-09-21T21:27:39.107Z,97.20
2022-09-21T21:31:21.633Z,97.50
2022-09-21T21:35:05.004Z,97.80
2022-09-21T21:38:46.932Z,98.00
2022-09-21T21:42:29.569Z,98.30
2022-09-21T21:46:11.866Z,98.50
2022-09-21T21:49:53.793Z,98.70
2022-09-21T21:53:37.845Z,98.90
2022-09-21T21:57:19.711Z,99.20
2022-09-21T22:01:13.299Z,99.40
2022-09-21T22:04:55.199Z,99.60
2022-09-21T22:08:38.595Z,99.90
2022-09-21T22:12:22.123Z,99.90
2022-09-21T22:16:09.478Z,99.90
2022-09-21T22:19:51.582Z,99.90
2022-09-21T22:23:33.914Z,99.90
2022-09-21T22:27:16.491Z,99.90
2022-09-21T22:30:59.620Z,99.90
2022-09-21T22:34:41.548Z,99.90
2022-09-21T22:38:23.449Z,99.90
2022-09-21T22:42:05.444Z,99.90
2022-09-21T22:45:47.366Z,99.90
2022-09-21T22:49:29.269Z,99.90
2022-09-21T22:53:11.136Z,99.90
2022-09-21T22:56:52.964Z,99.90
2022-09-21T23:00:34.899Z,99.90
2022-09-21T23:04:17.214Z,99.90
2022-09-21T23:07:59.097Z,99.90
2022-09-21T23:11:43.337Z,99.90
2022-09-21T23:15:25.226Z,99.90
2022-09-21T23:19:15.461Z,99.90
2022-09-21T23:22:57.987Z,99.90
2022-09-21T23:26:40.021Z,99.90
2022-09-21T23:30:21.877Z,99.90
2022-09-21T23:34:07.565Z,99.90
2022-09-21T23:37:50.019Z,99.90
2022-09-21T23:41:34.858Z,99.90
2022-09-21T23:45:16.728Z,99.90
2022-09-21T23:49:00.759Z,99.90
2022-09-21T23:52:42.637Z,99.90
2022-09-21T23:56:25.252Z,99.90
